createdAt,value
2019-03-01T00:01:43.516Z,6.70
2019-03-01T00:04:20.328Z,6.60
2019-03-01T00:07:00.172Z,6.70
2019-03-01T00:10:09.640Z,6.70
2019-03-01T00:13:04.730Z,6.60
2019-03-01T00:15:59.823Z,6.50
2019-03-01T00:19:11.826Z,6.50
2019-03-01T00:21:51.702Z,6.60
2019-03-01T00:24:52.499Z,6.60
2019-03-01T00:27:53.029Z,6.50
2019-03-01T00:30:55.092Z,6.50
2019-03-01T00:33:35.355Z,6.50
2019-03-01T00:36:28.853Z,6.50
2019-03-01T00:39:32.862Z,6.60
2019-03-01T00:42:15.738Z,6.50
2019-03-01T00:44:48.380Z,6.40
2019-03-01T00:47:18.115Z,6.60
2019-03-01T00:49:47.603Z,6.40
2019-03-01T00:52:17.121Z,6.30
2019-03-01T00:54:46.612Z,6.30
2019-03-01T00:57:16.069Z,6.30
2019-03-01T00:59:45.534Z,6.20
2019-03-01T01:02:15.031Z,6.30
2019-03-01T01:04:44.471Z,6.10
2019-03-01T01:07:14.025Z,6.10
2019-03-01T01:12:49.166Z,6.10
2019-03-01T01:15:19.287Z,6.00
2019-03-01T01:17:48.775Z,6.00
2019-03-01T01:20:18.339Z,6.00
2019-03-01T01:22:47.800Z,5.80
2019-03-01T01:25:17.296Z,5.80
2019-03-01T01:27:46.862Z,5.80
2019-03-01T01:30:16.731Z,5.80
2019-03-01T01:32:46.229Z,5.80
2019-03-01T01:35:15.684Z,5.60
2019-03-01T01:37:45.173Z,5.60
2019-03-01T01:40:14.706Z,5.70
2019-03-01T01:42:44.209Z,5.60
2019-03-01T01:45:13.825Z,5.50
2019-03-01T01:47:43.310Z,5.50
2019-03-01T01:50:13.078Z,5.50
2019-03-01T01:52:42.563Z,5.40
2019-03-01T01:55:12.036Z,5.50
2019-03-01T01:57:41.502Z,5.50
2019-03-01T02:00:13.873Z,5.40
2019-03-01T02:02:43.364Z,5.70
2019-03-01T02:05:12.895Z,5.70
2019-03-01T02:07:42.354Z,5.40
2019-03-01T02:10:12.133Z,5.40
2019-03-01T02:12:41.580Z,5.20
2019-03-01T02:15:13.994Z,5.20
2019-03-01T02:17:43.454Z,5.20
2019-03-01T02:20:13.933Z,5.20
2019-03-01T02:22:43.375Z,5.00
2019-03-01T02:25:14.613Z,5.10
2019-03-01T02:27:44.094Z,5.10
2019-03-01T02:30:17.949Z,5.00
2019-03-01T02:32:47.668Z,5.00
2019-03-01T02:35:19.127Z,4.80
2019-03-01T02:37:48.605Z,4.90
2019-03-01T02:40:18.778Z,5.00
2019-03-01T02:42:48.440Z,5.00
2019-03-01T02:45:22.310Z,5.10
2019-03-01T02:47:51.750Z,5.10
2019-03-01T02:50:22.071Z,5.20
2019-03-01T02:52:51.575Z,5.40
2019-03-01T02:55:22.374Z,5.70
2019-03-01T02:57:51.922Z,5.90
2019-03-01T03:00:29.980Z,5.50
2019-03-01T03:02:59.510Z,5.40
2019-03-01T03:05:28.985Z,5.30
2019-03-01T03:08:00.117Z,5.40
2019-03-01T03:10:29.609Z,5.30
2019-03-01T03:13:02.480Z,5.10
2019-03-01T03:15:33.630Z,5.10
2019-03-01T03:18:03.187Z,5.10
2019-03-01T03:20:32.649Z,5.10
2019-03-01T03:23:02.140Z,5.00
2019-03-01T03:25:31.634Z,5.00
2019-03-01T03:28:01.123Z,5.10
2019-03-01T03:30:30.587Z,5.00
2019-03-01T03:33:00.045Z,4.90
2019-03-01T03:35:29.505Z,4.70
2019-03-01T03:37:58.996Z,4.60
2019-03-01T03:40:28.462Z,4.80
2019-03-01T03:42:57.957Z,4.80
2019-03-01T03:45:27.442Z,4.70
2019-03-01T03:47:57.263Z,4.70
2019-03-01T03:50:26.753Z,4.70
2019-03-01T03:52:56.305Z,4.70
2019-03-01T03:55:26.967Z,4.70
2019-03-01T03:57:56.587Z,4.70
2019-03-01T04:00:27.512Z,4.70
2019-03-01T04:02:56.968Z,4.80
2019-03-01T04:05:26.426Z,4.80
2019-03-01T04:07:56.461Z,5.00
2019-03-01T04:10:25.919Z,5.10
2019-03-01T04:12:55.426Z,4.90
2019-03-01T04:15:24.840Z,4.70
2019-03-01T04:17:54.320Z,4.80
2019-03-01T04:20:23.776Z,4.70
2019-03-01T04:22:53.254Z,4.50
2019-03-01T04:25:22.748Z,4.50
2019-03-01T04:27:53.450Z,4.50
2019-03-01T04:30:23.101Z,4.50
2019-03-01T04:32:52.592Z,4.50
2019-03-01T04:35:22.049Z,4.60
2019-03-01T04:37:51.672Z,4.80
2019-03-01T04:40:21.156Z,4.60
2019-03-01T04:42:50.605Z,4.60
2019-03-01T04:45:20.252Z,4.60
2019-03-01T04:47:49.728Z,4.50
2019-03-01T04:50:19.660Z,4.40
2019-03-01T04:52:49.144Z,4.40
2019-03-01T04:55:24.864Z,4.50
2019-03-01T04:57:54.405Z,4.50
2019-03-01T05:00:26.057Z,4.50
2019-03-01T05:02:56.201Z,4.40
2019-03-01T05:05:26.221Z,4.50
2019-03-01T05:07:55.859Z,4.50
2019-03-01T05:10:25.309Z,4.50
2019-03-01T05:12:54.754Z,4.50
2019-03-01T05:15:25.387Z,4.50
2019-03-01T05:17:54.848Z,4.50
2019-03-01T05:20:24.325Z,4.50
2019-03-01T05:22:53.782Z,4.40
2019-03-01T05:25:23.267Z,4.50
2019-03-01T05:27:52.704Z,4.50
2019-03-01T05:30:22.158Z,4.40
2019-03-01T05:32:51.625Z,4.50
2019-03-01T05:35:21.099Z,5.00
2019-03-01T05:37:50.551Z,5.10
2019-03-01T05:40:20.197Z,4.80
2019-03-01T05:42:49.657Z,4.60
2019-03-01T05:45:25.927Z,4.60
2019-03-01T05:47:55.389Z,4.60
2019-03-01T05:50:24.896Z,4.60
2019-03-01T05:52:54.398Z,4.60
2019-03-01T05:55:23.855Z,4.60
2019-03-01T05:58:32.385Z,5.10
2019-03-01T06:01:25.119Z,5.10
2019-03-01T06:04:10.751Z,5.40
2019-03-01T06:07:13.091Z,5.20
2019-03-01T06:09:55.864Z,5.00
2019-03-01T06:12:47.641Z,4.70
2019-03-01T06:15:57.987Z,4.80
2019-03-01T06:19:01.064Z,4.70
2019-03-01T06:21:51.727Z,4.60
2019-03-01T06:24:50.001Z,4.60
2019-03-01T06:27:45.017Z,4.50
2019-03-01T06:30:27.419Z,4.60
2019-03-01T06:33:50.874Z,4.60
2019-03-01T06:36:33.476Z,4.70
2019-03-01T06:39:17.912Z,4.70
2019-03-01T06:42:17.282Z,4.60
2019-03-01T06:45:00.414Z,4.70
2019-03-01T06:47:45.994Z,4.80
2019-03-01T06:50:17.636Z,4.80
2019-03-01T06:52:47.155Z,4.80
2019-03-01T06:55:29.901Z,4.90
2019-03-01T06:57:59.425Z,4.80
2019-03-01T07:00:30.516Z,4.90
2019-03-01T07:03:01.260Z,5.00
2019-03-01T07:05:30.720Z,5.00
2019-03-01T07:08:00.250Z,4.90
2019-03-01T07:10:29.733Z,5.00
2019-03-01T07:12:59.177Z,4.90
2019-03-01T07:15:28.714Z,5.10
2019-03-01T07:17:58.206Z,5.00
2019-03-01T07:20:27.653Z,4.90
2019-03-01T07:22:57.101Z,4.90
2019-03-01T07:25:26.595Z,5.00
2019-03-01T07:27:56.060Z,4.90
2019-03-01T07:30:25.522Z,4.90
2019-03-01T07:32:55.021Z,4.90
2019-03-01T07:35:24.481Z,4.80
2019-03-01T07:37:53.976Z,4.80
2019-03-01T07:40:23.461Z,4.90
2019-03-01T07:42:52.915Z,5.00
2019-03-01T07:45:22.377Z,5.10
2019-03-01T07:47:51.845Z,5.00
2019-03-01T07:50:21.302Z,4.90
2019-03-01T07:52:50.754Z,5.10
2019-03-01T07:55:20.243Z,5.50
2019-03-01T07:57:50.579Z,5.90
2019-03-01T08:00:20.123Z,6.00
2019-03-01T08:02:49.935Z,5.80
2019-03-01T08:05:19.392Z,6.00
2019-03-01T08:07:56.140Z,6.30
2019-03-01T08:10:22.463Z,6.70
2019-03-01T08:12:51.224Z,6.90
2019-03-01T08:15:20.679Z,7.20
2019-03-01T08:17:50.161Z,7.20
2019-03-01T08:20:20.441Z,7.20
2019-03-01T08:22:49.922Z,6.60
2019-03-01T08:25:23.403Z,6.30
2019-03-01T08:27:50.855Z,6.00
2019-03-01T08:30:20.377Z,6.30
2019-03-01T08:32:49.845Z,6.80
2019-03-01T08:35:20.130Z,7.20
2019-03-01T08:37:53.208Z,6.90
2019-03-01T08:40:21.357Z,7.30
2019-03-01T08:42:50.811Z,7.40
2019-03-01T08:45:21.495Z,7.70
2019-03-01T08:47:51.171Z,7.70
2019-03-01T08:50:20.698Z,7.60
2019-03-01T08:52:50.151Z,7.90
2019-03-01T08:55:29.995Z,8.00
2019-03-01T08:58:03.378Z,8.00
2019-03-01T09:00:37.818Z,7.90
2019-03-01T09:03:22.312Z,7.90
2019-03-01T09:05:51.731Z,7.50
2019-03-01T09:08:21.187Z,7.40
2019-03-01T09:10:50.617Z,7.40
2019-03-01T09:13:20.114Z,7.10
2019-03-01T09:15:50.374Z,7.30
2019-03-01T09:18:19.900Z,7.30
2019-03-01T09:20:49.394Z,7.10
2019-03-01T09:23:25.098Z,7.10
2019-03-01T09:25:50.014Z,7.30
2019-03-01T09:28:19.501Z,7.10
2019-03-01T09:30:48.951Z,7.20
2019-03-01T09:33:21.241Z,6.80
2019-03-01T09:35:54.097Z,7.00
2019-03-01T09:38:23.550Z,7.10
2019-03-01T09:40:52.994Z,7.00
2019-03-01T09:43:24.712Z,6.80
2019-03-01T09:45:53.730Z,7.00
2019-03-01T09:48:23.207Z,7.10
2019-03-01T09:50:52.664Z,7.00
2019-03-01T09:53:22.109Z,6.70
2019-03-01T09:55:51.620Z,6.80
2019-03-01T09:58:21.114Z,6.70
2019-03-01T10:01:04.104Z,6.50
2019-03-01T10:03:33.574Z,6.40
2019-03-01T10:06:03.028Z,7.00
2019-03-01T10:08:32.488Z,6.70
2019-03-01T10:11:01.973Z,6.60
2019-03-01T10:13:31.422Z,6.90
2019-03-01T10:16:00.867Z,7.00
2019-03-01T10:18:30.346Z,6.90
2019-03-01T10:20:59.813Z,6.90
2019-03-01T10:23:29.294Z,7.10
2019-03-01T10:25:58.882Z,7.10
2019-03-01T10:28:28.340Z,7.10
2019-03-01T10:30:57.790Z,7.20
2019-03-01T10:33:27.242Z,6.90
2019-03-01T10:35:56.725Z,6.60
2019-03-01T10:38:26.181Z,6.50
2019-03-01T10:40:55.672Z,6.70
2019-03-01T10:43:25.126Z,7.10
2019-03-01T10:45:54.642Z,6.50
2019-03-01T10:48:24.100Z,6.30
2019-03-01T10:50:53.566Z,7.00
2019-03-01T10:53:23.142Z,6.40
2019-03-01T10:55:52.631Z,6.30
2019-03-01T10:58:22.088Z,6.40
2019-03-01T11:00:51.566Z,7.00
2019-03-01T11:03:21.028Z,6.30
2019-03-01T11:05:50.551Z,6.20
2019-03-01T11:08:20.026Z,6.40
2019-03-01T11:10:49.509Z,6.40
2019-03-01T11:13:19.100Z,6.20
2019-03-01T11:15:48.649Z,6.00
2019-03-01T11:18:18.173Z,5.70
2019-03-01T11:20:47.618Z,5.90
2019-03-01T11:23:17.062Z,5.90
2019-03-01T11:25:46.536Z,5.50
2019-03-01T11:28:16.009Z,5.50
2019-03-01T11:30:45.455Z,5.50
2019-03-01T11:33:15.190Z,5.70
2019-03-01T11:35:44.812Z,5.70
2019-03-01T11:38:14.301Z,5.20
2019-03-01T11:40:43.791Z,4.90
2019-03-01T11:43:13.248Z,5.20
2019-03-01T11:45:42.715Z,5.20
2019-03-01T11:48:12.177Z,5.40
2019-03-01T11:50:41.669Z,5.30
2019-03-01T11:53:11.121Z,5.10
2019-03-01T11:55:40.646Z,4.80
2019-03-01T11:58:10.126Z,4.90
2019-03-01T12:00:39.575Z,5.10
2019-03-01T12:03:09.056Z,5.00
2019-03-01T12:05:38.689Z,4.90
2019-03-01T12:08:08.177Z,5.10
2019-03-01T12:10:37.628Z,4.90
2019-03-01T12:13:07.114Z,4.70
2019-03-01T12:15:36.607Z,4.70
2019-03-01T12:18:06.056Z,4.90
2019-03-01T12:20:35.504Z,4.80
2019-03-01T12:23:05.072Z,4.80
2019-03-01T12:25:34.519Z,4.70
2019-03-01T12:28:04.063Z,4.70
2019-03-01T12:30:33.543Z,4.70
2019-03-01T12:33:03.025Z,4.70
2019-03-01T12:35:32.477Z,4.80
2019-03-01T12:38:01.970Z,4.90
2019-03-01T12:40:32.370Z,5.00
2019-03-01T12:43:01.877Z,5.00
2019-03-01T12:45:31.337Z,4.90
2019-03-01T12:48:00.787Z,5.00
2019-03-01T12:50:30.278Z,5.00
2019-03-01T12:52:59.729Z,4.90
2019-03-01T12:55:30.906Z,4.90
2019-03-01T12:58:00.492Z,5.00
2019-03-01T13:00:36.707Z,5.20
2019-03-01T13:03:09.060Z,5.30
2019-03-01T13:05:37.347Z,6.20
2019-03-01T13:08:06.910Z,6.10
2019-03-01T13:10:40.244Z,5.50
2019-03-01T13:13:10.514Z,5.10
2019-03-01T13:15:40.017Z,5.80
2019-03-01T13:18:10.360Z,5.50
2019-03-01T13:20:40.657Z,5.10
2019-03-01T13:23:10.135Z,4.70
2019-03-01T13:25:39.602Z,4.80
2019-03-01T13:28:09.083Z,4.90
2019-03-01T13:30:38.542Z,5.10
2019-03-01T13:33:08.014Z,5.10
2019-03-01T13:35:37.503Z,5.10
2019-03-01T13:38:06.958Z,5.00
2019-03-01T13:40:36.409Z,4.80
2019-03-01T13:43:05.979Z,5.20
2019-03-01T13:45:35.438Z,4.90
2019-03-01T13:48:04.954Z,5.00
2019-03-01T13:50:34.417Z,5.00
2019-03-01T13:53:03.891Z,5.30
2019-03-01T13:55:34.369Z,5.00
2019-03-01T13:58:03.824Z,5.20
2019-03-01T14:00:33.547Z,5.10
2019-03-01T14:03:02.985Z,5.00
2019-03-01T14:05:38.473Z,5.00
2019-03-01T14:08:09.234Z,4.90
2019-03-01T14:10:41.754Z,5.10
2019-03-01T14:13:11.256Z,4.90
2019-03-01T14:15:41.378Z,5.30
2019-03-01T14:18:10.860Z,5.30
2019-03-01T14:20:40.436Z,5.30
2019-03-01T14:23:09.876Z,5.50
2019-03-01T14:25:41.649Z,5.30
2019-03-01T14:28:10.547Z,5.50
2019-03-01T14:30:40.026Z,5.20
2019-03-01T14:33:09.494Z,5.10
2019-03-01T14:35:38.980Z,5.20
2019-03-01T14:38:08.427Z,5.30
2019-03-01T14:40:37.925Z,5.50
2019-03-01T14:43:07.373Z,5.20
2019-03-01T14:45:37.121Z,5.50
2019-03-01T14:48:08.796Z,5.60
2019-03-01T14:50:37.769Z,5.70
2019-03-01T14:53:07.258Z,5.40
2019-03-01T14:55:44.174Z,5.50
2019-03-01T14:58:22.363Z,5.30
2019-03-01T15:01:08.650Z,5.00
2019-03-01T15:03:40.120Z,5.10
2019-03-01T15:06:09.564Z,5.00
2019-03-01T15:08:40.387Z,5.30
2019-03-01T15:11:14.286Z,5.40
2019-03-01T15:13:44.569Z,5.30
2019-03-01T15:16:14.099Z,5.30
2019-03-01T15:18:44.344Z,5.10
2019-03-01T15:21:15.212Z,5.10
2019-03-01T15:23:44.672Z,5.30
2019-03-01T15:26:14.302Z,5.00
2019-03-01T15:28:55.231Z,5.00
2019-03-01T15:31:23.577Z,4.90
2019-03-01T15:33:53.029Z,5.20
2019-03-01T15:36:22.519Z,5.10
2019-03-01T15:38:51.967Z,5.00
2019-03-01T15:41:21.432Z,5.00
2019-03-01T15:43:50.880Z,4.90
2019-03-01T15:46:20.491Z,5.00
2019-03-01T15:48:49.993Z,4.90
2019-03-01T15:51:19.497Z,4.80
2019-03-01T15:53:49.000Z,4.80
2019-03-01T15:56:18.475Z,5.00
2019-03-01T15:58:47.939Z,5.00
2019-03-01T16:01:17.418Z,4.80
2019-03-01T16:03:46.887Z,4.90
2019-03-01T16:06:20.125Z,4.80
2019-03-01T16:08:48.843Z,4.80
2019-03-01T16:11:18.583Z,4.80
2019-03-01T16:13:51.642Z,4.90
2019-03-01T16:16:21.127Z,4.80
2019-03-01T16:18:50.599Z,4.70
2019-03-01T16:21:24.381Z,4.80
2019-03-01T16:23:53.827Z,4.70
2019-03-01T16:26:29.588Z,4.70
2019-03-01T16:28:54.647Z,4.80
2019-03-01T16:31:24.383Z,4.70
2019-03-01T16:33:53.863Z,4.80
2019-03-01T16:36:26.455Z,4.80
2019-03-01T16:38:56.447Z,4.70
2019-03-01T16:41:26.222Z,4.70
2019-03-01T16:43:55.697Z,4.90
2019-03-01T16:46:25.092Z,4.80
2019-03-01T16:48:54.644Z,4.60
2019-03-01T16:51:24.103Z,4.60
2019-03-01T16:53:53.560Z,4.50
2019-03-01T16:56:23.050Z,4.60
2019-03-01T16:58:52.509Z,4.60
2019-03-01T17:01:26.004Z,4.60
2019-03-01T17:03:54.823Z,4.60
2019-03-01T17:06:24.272Z,4.50
2019-03-01T17:08:53.739Z,4.60
2019-03-01T17:11:23.220Z,4.60
2019-03-01T17:13:53.917Z,4.60
2019-03-01T17:16:24.527Z,4.60
2019-03-01T17:18:54.132Z,4.60
2019-03-01T17:21:24.919Z,4.60
2019-03-01T17:23:54.722Z,4.60
2019-03-01T17:26:26.337Z,4.90
2019-03-01T17:28:55.515Z,4.60
2019-03-01T17:31:27.810Z,4.60
2019-03-01T17:33:57.423Z,4.60
2019-03-01T17:36:26.898Z,4.50
2019-03-01T17:38:56.351Z,4.60
2019-03-01T17:41:25.830Z,4.60
2019-03-01T17:43:55.288Z,4.80
2019-03-01T17:46:25.476Z,5.30
2019-03-01T17:48:57.382Z,5.00
2019-03-01T17:51:26.213Z,4.90
2019-03-01T17:53:55.656Z,4.80
2019-03-01T17:56:25.914Z,4.70
2019-03-01T17:58:55.369Z,4.80
2019-03-01T18:01:24.985Z,4.70
2019-03-01T18:03:54.470Z,4.80
2019-03-01T18:06:23.921Z,4.80
2019-03-01T18:08:53.391Z,4.80
2019-03-01T18:11:22.886Z,4.80
2019-03-01T18:13:52.339Z,4.80
2019-03-01T18:16:22.146Z,4.70
2019-03-01T18:18:53.088Z,5.10
2019-03-01T18:21:22.561Z,5.40
2019-03-01T18:23:52.014Z,5.40
2019-03-01T18:26:23.033Z,5.20
2019-03-01T18:28:53.227Z,4.90
2019-03-01T18:31:22.678Z,4.90
2019-03-01T18:33:53.657Z,4.90
2019-03-01T18:36:23.327Z,4.80
2019-03-01T18:38:52.776Z,4.80
2019-03-01T18:41:24.177Z,4.80
2019-03-01T18:43:53.461Z,4.70
2019-03-01T18:46:22.916Z,4.70
2019-03-01T18:48:52.400Z,4.60
2019-03-01T18:51:21.862Z,4.60
2019-03-01T18:53:51.314Z,4.70
2019-03-01T18:56:24.938Z,4.70
2019-03-01T18:58:53.252Z,4.70
2019-03-01T19:01:22.716Z,4.60
2019-03-01T19:03:52.251Z,4.60
2019-03-01T19:06:21.724Z,4.60
2019-03-01T19:08:51.171Z,4.50
2019-03-01T19:11:20.646Z,4.60
2019-03-01T19:13:50.095Z,4.60
2019-03-01T19:16:19.580Z,4.50
2019-03-01T19:18:51.256Z,4.50
2019-03-01T19:21:20.233Z,4.40
2019-03-01T19:23:49.692Z,4.40
2019-03-01T19:26:19.179Z,4.40
2019-03-01T19:28:49.041Z,4.30
2019-03-01T19:31:21.702Z,4.40
2019-03-01T19:33:49.720Z,5.50
2019-03-01T19:36:20.043Z,6.10
2019-03-01T19:38:49.503Z,5.90
2019-03-01T19:41:20.035Z,5.30
2019-03-01T19:43:57.386Z,4.90
2019-03-01T19:46:21.424Z,5.20
2019-03-01T19:48:50.914Z,5.20
2019-03-01T19:51:20.383Z,5.00
2019-03-01T19:53:49.803Z,4.80
2019-03-01T19:56:24.990Z,4.90
2019-03-01T19:58:51.590Z,5.10
2019-03-01T20:01:21.259Z,5.30
2019-03-01T20:03:50.763Z,5.50
2019-03-01T20:06:20.223Z,5.30
2019-03-01T20:08:51.620Z,5.40
2019-03-01T20:11:26.734Z,5.20
2019-03-01T20:13:54.797Z,5.50
2019-03-01T20:16:24.246Z,5.60
2019-03-01T20:18:53.794Z,5.50
2019-03-01T20:21:24.735Z,5.60
2019-03-01T20:23:54.195Z,5.70
2019-03-01T20:26:26.673Z,5.80
2019-03-01T20:28:54.878Z,5.70
2019-03-01T20:31:24.327Z,5.30
2019-03-01T20:33:53.773Z,5.00
2019-03-01T20:36:27.613Z,4.80
2019-03-01T20:38:57.549Z,5.00
2019-03-01T20:41:27.012Z,5.50
2019-03-01T20:43:56.504Z,5.60
2019-03-01T20:46:25.964Z,5.60
2019-03-01T20:48:55.417Z,5.30
2019-03-01T20:51:27.046Z,4.90
2019-03-01T20:54:01.025Z,4.70
2019-03-01T20:56:30.197Z,4.60
2019-03-01T20:58:59.675Z,4.40
2019-03-01T21:01:30.151Z,4.50
2019-03-01T21:04:01.446Z,4.50
2019-03-01T21:06:30.816Z,4.40
2019-03-01T21:09:00.716Z,4.30
2019-03-01T21:11:31.526Z,4.20
2019-03-01T21:14:00.970Z,4.10
2019-03-01T21:16:30.453Z,4.10
2019-03-01T21:18:59.996Z,4.10
2019-03-01T21:21:29.763Z,4.00
2019-03-01T21:23:59.317Z,4.20
2019-03-01T21:26:28.763Z,3.90
2019-03-01T21:28:58.224Z,3.80
2019-03-01T21:31:27.707Z,3.70
2019-03-01T21:33:59.432Z,3.70
2019-03-01T21:36:28.343Z,3.70
2019-03-01T21:38:58.161Z,3.80
2019-03-01T21:41:27.606Z,4.00
2019-03-01T21:43:57.063Z,3.70
2019-03-01T21:46:26.548Z,3.70
2019-03-01T21:48:56.796Z,3.70
2019-03-01T21:51:27.192Z,3.60
2019-03-01T21:53:56.671Z,3.50
2019-03-01T21:56:26.132Z,3.50
2019-03-01T21:58:55.590Z,3.40
2019-03-01T22:01:25.071Z,3.30
2019-03-01T22:03:54.614Z,3.20
2019-03-01T22:06:24.728Z,3.20
2019-03-01T22:08:54.494Z,3.20
2019-03-01T22:11:23.952Z,3.10
2019-03-01T22:13:53.410Z,3.10
2019-03-01T22:16:22.897Z,3.00
2019-03-01T22:18:55.454Z,2.80
2019-03-01T22:21:23.959Z,2.80
2019-03-01T22:23:53.450Z,2.90
2019-03-01T22:26:22.895Z,2.90
2019-03-01T22:28:52.358Z,2.80
2019-03-01T22:31:21.829Z,2.70
2019-03-01T22:33:52.599Z,2.70
2019-03-01T22:36:22.470Z,2.50
2019-03-01T22:38:51.974Z,2.50
2019-03-01T22:41:21.417Z,2.40
2019-03-01T22:43:50.890Z,2.10
2019-03-01T22:46:21.085Z,2.10
2019-03-01T22:48:56.371Z,2.00
2019-03-01T22:51:22.739Z,2.10
2019-03-01T22:53:52.222Z,2.20
2019-03-01T22:56:22.599Z,2.30
2019-03-01T22:58:52.104Z,2.30
2019-03-01T23:01:23.676Z,2.30
2019-03-01T23:03:54.883Z,2.30
2019-03-01T23:06:24.315Z,2.20
2019-03-01T23:08:53.869Z,2.00
2019-03-01T23:11:23.314Z,1.90
2019-03-01T23:13:55.790Z,1.80
2019-03-01T23:16:23.978Z,1.60
2019-03-01T23:18:56.647Z,1.40
2019-03-01T23:21:24.631Z,1.40
2019-03-01T23:23:55.807Z,1.40
2019-03-01T23:26:25.301Z,1.30
2019-03-01T23:28:54.761Z,1.40
2019-03-01T23:31:24.232Z,1.30
2019-03-01T23:33:53.681Z,1.40
2019-03-01T23:36:25.011Z,1.60
2019-03-01T23:38:54.328Z,1.90
2019-03-01T23:41:23.795Z,1.90
2019-03-01T23:43:53.251Z,1.80
2019-03-01T23:46:25.631Z,1.80
2019-03-01T23:48:54.501Z,1.70
2019-03-01T23:51:23.962Z,1.80
2019-03-01T23:53:53.447Z,1.80
2019-03-01T23:56:22.904Z,1.80
2019-03-01T23:58:53.012Z,1.70
